Flight Track Log - Related Links

Times and Time Zones

All times are in EST time to prevent confusion due to time zone crossing. See the DAL949 flight status page for this flight to view local times or setup timezone preferences in your user account.

Time Position Orientation Groundspeed Altitude Reporting Facility
EST Latitude Longitude Course Direction KTS MPH feet Rate Location/Type
Tue 06:44:10 PM 44.9000 -93.2500 285° West 160 184 2,300  Level Minneapolis TRACON
Tue 06:45:04 PM 44.9167 -93.3167 289° West 222 255 2,900 1,937 Climbing Minneapolis TRACON
Tue 06:46:17 PM 44.9611 -93.4203 301° West 270 311 6,400 2,756 Climbing Minneapolis Center
Tue 06:47:00 PM 45.0488 -93.7897 290° West  Level Estimated
Tue 06:47:19 PM 44.9908 -93.5233 292° West 286 329 9,100  Level Minneapolis Center
Tue 06:48:00 PM 45.0882 -93.9332 291° West  Level FlightAware Approximate
Tue 06:48:21 PM 45.0219 -93.6331 292° West 302 348 11,700  Level Minneapolis Center
Tue 06:49:00 PM 45.1292 -94.0759 285° West  Level Estimated
Tue 06:49:23 PM 45.0619 -93.7761 292° West 330 380 14,900  Level Minneapolis Center
Tue 06:50:25 PM 45.0958 -93.8994 291° West 328 377 16,900 1,887 Climbing Minneapolis Center
Tue 06:51:27 PM 45.1242 -94.0214 288° West 339 390 18,800 1,824 Climbing Minneapolis Center
Tue 06:52:30 PM 45.1558 -94.1517 289° West 346 398 20,700 1,776 Climbing Minneapolis Center
Tue 06:53:32 PM 45.1883 -94.2842 289° West 354 407 22,500 1,597 Climbing Minneapolis Center
Tue 06:54:34 PM 45.2206 -94.4211 289° West 364 419 24,000 1,610 Climbing Minneapolis Center
Tue 06:55:35 PM 45.2594 -94.5853 289° West 366 421 25,800 1,073 Climbing Minneapolis Center
Tue 06:56:37 PM 45.2892 -94.7100 289° West 376 433 26,200 624 Climbing Minneapolis Center
Tue 06:57:40 PM 45.3333 -94.8950 289° West 405 466 27,100 864 Climbing Minneapolis Center
Tue 06:58:42 PM 45.3583 -95.0553 283° West 415 478 28,000 1,065 Climbing Minneapolis Center
Tue 06:59:44 PM 45.3931 -95.2108 288° West 415 478 29,300 1,065 Climbing Minneapolis Center
Tue 07:00:46 PM 45.4333 -95.3692 290° West 425 489 30,200 968 Climbing Minneapolis Center
Tue 07:01:48 PM 45.4639 -95.5278 285° West 420 483 31,300 1,065 Climbing Minneapolis Center
Tue 07:02:50 PM 45.5011 -95.7197 286° West 420 483 32,400 919 Climbing Minneapolis Center
Tue 07:03:52 PM 45.5303 -95.8767 285° West 414 476 33,200 871 Climbing Minneapolis Center
Tue 07:04:54 PM 45.5597 -96.0317 285° West 409 471 34,200 677 Climbing Minneapolis Center
Tue 07:05:56 PM 45.5894 -96.1894 285° West 411 473 34,600 484 Climbing Minneapolis Center
Tue 07:06:58 PM 45.6189 -96.3475 285° West 414 476 35,200 624 Climbing Minneapolis Center
Tue 07:08:01 PM 45.6469 -96.5028 285° West 409 471 35,900 384 Climbing Minneapolis Center
Tue 07:09:03 PM 45.6814 -96.6872 285° West 404 465 36,000 48 Climbing Minneapolis Center
Tue 07:10:05 PM 45.7089 -96.8419 284° West 403 464 36,000  Level Minneapolis Center
Tue 07:11:07 PM 45.7361 -96.9964 284° West 403 464 36,000  Level Minneapolis Center
Tue 07:12:09 PM 45.7653 -97.1531 285° West 408 470 36,000  Level Minneapolis Center
Tue 07:13:11 PM 45.7939 -97.3097 285° West 408 470 36,000  Level Minneapolis Center
Tue 07:14:13 PM 45.8267 -97.4978 284° West 407 468 36,000  Level Minneapolis Center
Tue 07:15:15 PM 45.8539 -97.6556 284° West 409 471 36,000 -48 Level Minneapolis Center
Tue 07:16:17 PM 45.8819 -97.8181 284° West 410 472 35,900 -47 Descending Minneapolis Center
Tue 07:17:22 PM 45.9089 -97.9783 284° West 413 475 35,900 47 Level Minneapolis Center
Tue 07:18:24 PM 45.9408 -98.1633 284° West 413 475 36,000 48 Climbing Minneapolis Center
Tue 07:19:26 PM 45.9689 -98.3228 284° West 414 476 36,000  Level Minneapolis Center
Tue 07:20:28 PM 45.9936 -98.4811 283° West 410 472 36,000 -48 Level Minneapolis Center
Tue 07:21:30 PM 46.0197 -98.6397 283° West 408 470 35,900  Descending Minneapolis Center
Tue 07:22:32 PM 46.0450 -98.7983 283° West 409 471 36,000 48 Climbing Minneapolis Center
Tue 07:23:34 PM 46.0703 -98.9592 283° West 410 472 36,000  Level Minneapolis Center
Tue 07:24:36 PM 46.0986 -99.1317 283° West 415 478 36,000  Level Minneapolis Center
Tue 07:25:38 PM 46.1269 -99.3181 282° West 418 481 36,000  Level Minneapolis Center
Tue 07:26:40 PM 46.1525 -99.4781 283° West 415 478 36,000  Level Minneapolis Center
Tue 07:27:42 PM 46.1767 -99.6375 282° West 412 474 36,000  Level Minneapolis Center
Tue 07:28:44 PM 46.2006 -99.7981 282° West 410 472 36,000  Level Minneapolis Center
Tue 07:29:46 PM 46.2256 -99.9600 283° West 414 476 36,000  Level Minneapolis Center
Tue 07:30:48 PM 46.2547 -100.1569 282° West 418 481 36,000  Level Minneapolis Center
Tue 07:31:50 PM 46.2783 -100.3158 282° West 410 472 36,000  Level Minneapolis Center
Tue 07:32:52 PM 46.3022 -100.4764 282° West 409 471 36,000  Level Minneapolis Center
Tue 07:33:54 PM 46.3253 -100.6392 282° West 412 474 36,000  Level Minneapolis Center
Tue 07:34:56 PM 46.3481 -100.8044 281° West 417 480 36,000  Level Minneapolis Center
Tue 07:35:58 PM 46.3725 -100.9678 282° West 417 480 36,000  Level Minneapolis Center
Tue 07:37:00 PM 46.3994 -101.1661 281° West 419 482 36,000  Level Minneapolis Center
Tue 07:38:03 PM 46.4233 -101.3353 282° West 426 490 36,000  Level Minneapolis Center
Tue 07:39:04 PM 46.4442 -101.5031 280° West 426 490 36,000  Level Minneapolis Center
Tue 07:40:06 PM 46.4658 -101.6531 282° West 424 488 36,000 -48 Level Minneapolis Center
Tue 07:41:09 PM 46.4936 -101.8511 282° West 421 484 35,900 -48 Descending Minneapolis Center
Tue 07:42:10 PM 46.5156 -102.0181 281° West 422 486 35,900  Level Minneapolis Center
Tue 07:43:12 PM 46.5394 -102.1828 282° West 420 483 35,900  Level Minneapolis Center
Tue 07:44:14 PM 46.5603 -102.3519 280° West 422 486 35,900  Level Minneapolis Center
Tue 07:45:16 PM 46.5825 -102.5169 281° West 421 484 35,900  Level Minneapolis Center
Tue 07:46:18 PM 46.6028 -102.6847 280° West 420 483 35,900  Level Minneapolis Center
Tue 07:47:20 PM 46.6272 -102.8861 280° West 422 486 35,900  Level Minneapolis Center
Tue 07:48:05 PM 46.6367 -102.9883 278° West 421 484 35,900  Level Salt Lake Center
Tue 07:49:07 PM 46.6572 -103.1561 280° West 422 486 35,900 49 Level Salt Lake Center
Tue 07:50:08 PM 46.6817 -103.3578 280° West 422 486 36,000  Climbing Salt Lake Center
Tue 07:51:10 PM 46.7019 -103.5247 280° West 421 484 35,900 -49 Descending Salt Lake Center
Tue 07:52:11 PM 46.7206 -103.6928 279° West 420 483 35,900  Level Salt Lake Center
Tue 07:53:12 PM 46.7397 -103.8619 279° West 421 484 35,900  Level Salt Lake Center
Tue 07:54:14 PM 46.7586 -104.0306 279° West 421 484 35,900  Level Salt Lake Center
Tue 07:55:15 PM 46.7767 -104.1961 279° West 418 481 35,900  Level Salt Lake Center
Tue 07:56:17 PM 46.7947 -104.3633 279° West 417 480 35,900 49 Level Salt Lake Center
Tue 07:57:18 PM 46.8128 -104.5339 279° West 421 484 36,000 49 Climbing Salt Lake Center
Tue 07:58:20 PM 46.8314 -104.7033 279° West 422 486 36,000 -49 Level Salt Lake Center
Tue 07:59:21 PM 46.8486 -104.8742 278° West 424 488 35,900 -49 Descending Salt Lake Center
Tue 08:00:23 PM 46.8703 -105.0764 279° West 423 487 35,900  Level Salt Lake Center
Tue 08:01:24 PM 46.8878 -105.2461 279° West 422 486 35,900  Level Salt Lake Center
Tue 08:02:25 PM 46.9053 -105.4150 279° West 421 484 35,900  Level Salt Lake Center
Tue 08:03:27 PM 46.9225 -105.5861 278° West 424 488 35,900  Level Salt Lake Center
Tue 08:04:28 PM 46.9397 -105.7544 279° West 422 486 35,900  Level Salt Lake Center
Tue 08:05:30 PM 46.9544 -105.9236 277° West 420 483 35,900 49 Level Salt Lake Center
Tue 08:06:31 PM 46.9719 -106.0956 279° West 424 488 36,000 49 Climbing Salt Lake Center
Tue 08:07:32 PM 46.9872 -106.2667 278° West 425 489 36,000  Level Salt Lake Center
Tue 08:08:34 PM 47.0053 -106.4503 278° West 423 487 36,000  Level Salt Lake Center
Tue 08:09:35 PM 47.0206 -106.6197 278° West 422 486 36,000  Level Salt Lake Center
Tue 08:10:37 PM 47.0344 -106.7886 277° West 421 484 36,000  Level Salt Lake Center
Tue 08:11:38 PM 47.0522 -106.9911 277° West 420 483 36,000  Level Salt Lake Center
Tue 08:12:39 PM 47.0661 -107.1611 277° West 423 487 36,000  Level Salt Lake Center
Tue 08:13:41 PM 47.0800 -107.3311 277° West 422 486 36,000  Level Salt Lake Center
Tue 08:14:42 PM 47.0933 -107.5019 277° West 423 487 36,000  Level Salt Lake Center
Tue 08:15:44 PM 47.1075 -107.6714 277° West 421 484 36,000  Level Salt Lake Center
Tue 08:16:45 PM 47.1206 -107.8414 277° West 421 484 36,000  Level Salt Lake Center
Tue 08:17:47 PM 47.1339 -108.0086 277° West 417 480 36,000  Level Salt Lake Center
Tue 08:18:48 PM 47.1464 -108.1772 276° West 417 480 36,000 -49 Level Salt Lake Center
Tue 08:19:49 PM 47.1617 -108.3789 276° West 416 479 35,900  Descending Salt Lake Center
Tue 08:20:51 PM 47.1725 -108.5489 275° West 418 481 36,000 49 Climbing Salt Lake Center
Tue 08:21:52 PM 47.1844 -108.7197 276° West 421 484 36,000  Level Salt Lake Center
Tue 08:22:54 PM 47.1961 -108.8900 276° West 421 484 36,000 -49 Level Salt Lake Center
Tue 08:23:55 PM 47.2089 -109.0717 276° West 422 486 35,900 -49 Descending Salt Lake Center
Tue 08:24:57 PM 47.2194 -109.2456 275° West 426 490 35,900  Level Salt Lake Center
Tue 08:25:58 PM 47.2311 -109.4186 276° West 426 490 35,900 44 Level Salt Lake Center
Tue 08:27:12 PM 47.2422 -109.5908 275° West 425 489 36,000  Climbing Salt Lake Center
Tue 08:28:13 PM 47.2544 -109.7956 275° West 419 482 35,900 -49 Descending Salt Lake Center
Tue 08:29:15 PM 47.2644 -109.9669 275° West 420 483 35,900  Level Salt Lake Center
Tue 08:30:16 PM 47.2742 -110.1383 275° West 420 483 35,900 49 Level Salt Lake Center
Tue 08:31:18 PM 47.2842 -110.3086 275° West 420 483 36,000  Climbing Salt Lake Center
Tue 08:32:19 PM 47.2956 -110.5136 275° West 418 481 35,900 -49 Descending Salt Lake Center
Tue 08:33:21 PM 47.3042 -110.6811 274° West 414 476 35,900  Level Salt Lake Center
Tue 08:34:22 PM 47.3133 -110.8492 275° West 411 473 35,900  Level Salt Lake Center
Tue 08:35:24 PM 47.3219 -111.0172 274° West 411 473 35,900  Level Salt Lake Center
Tue 08:36:25 PM 47.3300 -111.1869 274° West 412 474 35,900 49 Level Salt Lake Center
Tue 08:37:27 PM 47.3383 -111.3547 274° West 409 471 36,000 49 Climbing Salt Lake Center
Tue 08:38:28 PM 47.3456 -111.5228 274° West 407 468 36,000 -49 Level Salt Lake Center
Tue 08:39:30 PM 47.3525 -111.6883 274° West 403 464 35,900 -48 Descending Salt Lake Center
Tue 08:40:32 PM 47.3600 -111.8503 274° West 397 457 35,900  Level Salt Lake Center
Tue 08:41:33 PM 47.3661 -112.0142 273° West 399 459 35,900 49 Level Salt Lake Center
Tue 08:42:35 PM 47.3831 -112.2053 278° West 394 453 36,000 49 Climbing Salt Lake Center
Tue 08:43:36 PM 47.4039 -112.3567 282° West 380 437 36,000 -49 Level Salt Lake Center
Tue 08:44:38 PM 47.4228 -112.5119 280° West 385 443 35,900  Descending Salt Lake Center
Tue 08:45:39 PM 47.4425 -112.6650 281° West 382 440 36,000 49 Climbing Salt Lake Center
Tue 08:46:41 PM 47.4617 -112.8181 281° West 381 438 36,000 -48 Level Salt Lake Center
Tue 08:47:43 PM 47.4792 -112.9594 280° West 376 433 35,900 -49 Descending Salt Lake Center
Tue 08:48:44 PM 47.5039 -113.1400 282° West 375 432 35,900 -49 Level Salt Lake Center
Tue 08:49:46 PM 47.5194 -113.2897 279° West 371 427 35,800 -532 Descending Salt Lake Center
Tue 08:50:48 PM 47.5392 -113.4444 281° West 381 438 34,800 -878 Descending Salt Lake Center
Tue 08:51:49 PM 47.5575 -113.6031 280° West 389 448 34,000 -439 Descending Salt Lake Center
Tue 08:52:51 PM 47.5764 -113.7614 280° West 390 449 33,900 -48 Descending Salt Lake Center
Tue 08:53:53 PM 47.5931 -113.9103 279° West 370 426 33,900  Level Salt Lake Center
Tue 08:54:54 PM 47.6103 -114.0564 280° West 361 415 33,900  Level Salt Lake Center
Tue 08:55:56 PM 47.6267 -114.2000 280° West 354 407 33,900  Level Salt Lake Center
Tue 08:56:58 PM 47.6456 -114.3706 279° West 349 402 33,900  Level Salt Lake Center
Tue 08:58:00 PM 47.6608 -114.5125 279° West 347 399 33,900 49 Level Salt Lake Center
Tue 08:59:01 PM 47.6761 -114.6531 279° West 345 397 34,000 49 Climbing Salt Lake Center
Tue 09:00:03 PM 47.6911 -114.7917 279° West 340 391 34,000 -49 Level Salt Lake Center
Tue 09:01:03 PM 47.7067 -114.9294 280° West 337 388 33,900 -50 Descending Seattle Center
Tue 09:02:04 PM 47.7219 -115.0650 280° West 335 386 33,900  Level Seattle Center
Tue 09:03:05 PM 47.7414 -115.2008 282° West 336 387 33,900  Level Seattle Center
Tue 09:04:06 PM 47.7589 -115.3383 281° West 338 389 33,900 49 Level Seattle Center
Tue 09:05:07 PM 47.7764 -115.4758 281° West 339 390 34,000 -393 Climbing Seattle Center
Tue 09:06:08 PM 47.7939 -115.6103 281° West 335 386 33,100 -541 Descending Seattle Center
Tue 09:07:09 PM 47.8108 -115.7533 280° West 336 387 32,900 -99 Descending Seattle Center
Tue 09:08:09 PM 47.8286 -115.8950 281° West 347 399 32,900  Level Seattle Center
Tue 09:09:10 PM 47.8456 -116.0361 280° West 348 400 32,900  Level Seattle Center
Tue 09:10:11 PM 47.8631 -116.1756 281° West 346 398 32,900  Level Seattle Center
Tue 09:11:12 PM 47.8794 -116.3089 280° West 336 387 32,900  Level Seattle Center
Tue 09:12:13 PM 47.8958 -116.4439 280° West 334 384 32,900  Level Seattle Center
Tue 09:13:14 PM 47.9150 -116.6058 280° West 334 384 32,900  Level Seattle Center
Tue 09:14:14 PM 47.9306 -116.7425 280° West 336 387 32,900  Level Seattle Center
Tue 09:15:15 PM 47.9467 -116.8794 280° West 338 389 32,900 49 Level Seattle Center
Tue 09:16:16 PM 47.9631 -117.0172 280° West 339 390 33,000  Climbing Seattle Center
Tue 09:17:17 PM 47.9783 -117.1533 280° West 338 389 32,900 -49 Descending Seattle Center
Tue 09:18:18 PM 47.9944 -117.2889 280° West 336 387 32,900  Level Seattle Center
Tue 09:19:19 PM 48.0086 -117.4222 279° West 331 381 32,900  Level Seattle Center
Tue 09:20:20 PM 48.0239 -117.5550 280° West 328 377 32,900  Level Seattle Center
Tue 09:21:20 PM 48.0386 -117.6889 279° West 328 377 32,900  Level Seattle Center
Tue 09:22:21 PM 48.0525 -117.8239 279° West 329 379 32,900  Level Seattle Center
Tue 09:23:22 PM 48.0672 -117.9575 279° West 329 379 32,900 -344 Level Seattle Center
Tue 09:24:23 PM 48.0842 -118.1172 279° West 326 375 32,200 -496 Descending Seattle Center
Tue 09:25:23 PM 48.0969 -118.2519 278° West 327 376 31,900 -149 Descending Seattle Center
Tue 09:26:24 PM 48.1117 -118.3872 279° West 330 380 31,900  Level Seattle Center
Tue 09:27:25 PM 48.1250 -118.5219 278° West 329 379 31,900  Level Seattle Center
Tue 09:28:26 PM 48.1392 -118.6550 279° West 327 376 31,900  Level Seattle Center
Tue 09:29:27 PM 48.1522 -118.7886 278° West 326 375 31,900  Level Seattle Center
Tue 09:30:27 PM 48.1644 -118.9197 278° West 321 369 31,900  Level Seattle Center
Tue 09:31:28 PM 48.1764 -119.0533 278° West 323 372 31,900  Level Seattle Center
Tue 09:32:29 PM 48.1900 -119.1861 279° West 324 373 31,900  Level Seattle Center
Tue 09:33:30 PM 48.2036 -119.3197 279° West 327 376 31,900  Level Seattle Center
Tue 09:34:30 PM 48.2181 -119.4542 279° West 326 375 31,900  Level Seattle Center
Tue 09:35:31 PM 48.2278 -119.5897 276° West 330 380 31,900  Level Seattle Center
Tue 09:36:32 PM 48.2419 -119.7231 279° West 325 374 31,900  Level Seattle Center
Tue 09:37:33 PM 48.2533 -119.8586 277° West 328 377 31,900  Level Seattle Center
Tue 09:38:34 PM 48.2678 -120.0211 278° West 328 377 31,900  Level Seattle Center
Tue 09:39:35 PM 48.2769 -120.1578 276° West 329 379 31,900  Level Seattle Center
Tue 09:40:35 PM 48.2881 -120.2950 277° West 335 386 31,900  Level Seattle Center
Tue 09:41:36 PM 48.3022 -120.4325 279° West 335 386 31,900  Level Seattle Center
Tue 09:42:37 PM 48.3139 -120.5706 277° West 334 384 31,900  Level Seattle Center
Tue 09:43:37 PM 48.3247 -120.7075 277° West 331 381 31,900  Level Seattle Center
Tue 09:44:38 PM 48.3358 -120.8442 277° West 330 380 31,900  Level Seattle Center
Tue 09:45:39 PM 48.3483 -120.9911 277° West 325 374 31,900 49 Level Seattle Center
Tue 09:46:40 PM 48.3572 -121.1261 276° West 325 374 32,000 49 Climbing Seattle Center
Tue 09:47:41 PM 48.3683 -121.2608 277° West 326 375 32,000  Level Seattle Center
Tue 09:48:41 PM 48.3783 -121.3969 276° West 327 376 32,000  Level Seattle Center
Tue 09:49:42 PM 48.3886 -121.5308 277° West 324 373 32,000 -295 Level Seattle Center
Tue 09:50:43 PM 48.3994 -121.6653 277° West 326 375 31,400 -1,770 Descending Seattle Center
Tue 09:51:44 PM 48.4361 -121.7878 294° West 322 371 28,400 -3,124 Descending Seattle Center
Tue 09:52:44 PM 48.4922 -121.9022 307° West 337 388 25,100 -3,372 Descending Seattle Center
Tue 09:53:45 PM 48.5444 -122.0122 306° West 328 377 21,600 -3,295 Descending Seattle Center
Tue 09:54:46 PM 48.5969 -122.1242 305° West 329 379 18,400 -2,557 Descending Seattle Center
Tue 09:55:47 PM 48.6353 -122.2508 295° West 330 380 16,400 -1,623 Descending Seattle Center
Tue 09:56:48 PM 48.6733 -122.3792 294° West 333 383 15,100 -2,231 Descending Seattle Center
Tue 09:57:48 PM 48.7225 -122.5336 296° West 339 390 11,900 -2,083 Descending Seattle Center
Tue 09:58:49 PM 48.7725 -122.6261 309° West 296 341 10,900 -1,377 Descending Seattle Center
Tue 09:59:50 PM 48.8178 -122.7158 307° West 275 316 9,100 -1,314 Descending Seattle Center
Tue 10:01:06 PM 48.8500 -122.8333 293° West 270 311 7,900 -529 Descending Vancouver Center
Tue 10:02:06 PM 48.9000 -122.9167 312° West 270 311 7,900 -550 Level Vancouver Center
Tue 10:03:06 PM 48.9667 -122.9333 351° North 240 276 6,800 -1,250 Descending Vancouver Center
Tue 10:04:06 PM 49.0167 -122.9167 12° North 230 265 5,400 -1,500 Descending Vancouver Center
Tue 10:05:06 PM 49.0833 -122.8833 18° North 190 219 3,800 -1,400 Descending Vancouver Center
Tue 10:06:06 PM 49.1167 -122.9000 342° North 180 207 2,600 -900 Descending Vancouver Center
Tue 10:07:06 PM 49.1500 -122.9500 316° Northwest 180 207 2,000 -400 Descending Vancouver Center
Tue 10:08:06 PM 49.1667 -123.0333 287° West 160 184 1,800 -500 Descending Vancouver Center
Tue 10:09:06 PM 49.1667 -123.0833 270° West 150 173 1,000 -750 Descending Vancouver Center
Tue 10:10:06 PM 49.1833 -123.1333 297° West 130 150 300 -700 Descending Vancouver Center

Login

Don't have an account? Register now (free) for customized features, flight alerts, and more!